Time;durP1;ratioP1;P1;durP2;ratioP2;P2;SDS_P1;SDS_P2;PMS_P1;PMS_P2;Temp;Humidity;BMP_temperature;BMP_pressure;BME280_temperature;BME280_humidity;BME280_pressure;Samples;Min_cycle;Max_cycle;Signal;HPM_P1;HPM_P2
2023/11/25 00:00:06;;;;;;;2.15;0.88;;;;;;;6.56;71.99;99628.44;5088103;27;97130;-76
2023/11/25 00:02:32;;;;;;;3.28;0.88;;;;;;;6.48;71.01;99637.50;5086344;27;96985;-75
2023/11/25 00:04:59;;;;;;;2.42;1.05;;;;;;;6.60;71.06;99645.78;5082189;27;99107;-77
2023/11/25 00:07:25;;;;;;;4.20;1.00;;;;;;;6.55;71.87;99645.09;5090829;27;97948;-75
2023/11/25 00:09:53;;;;;;;2.97;1.10;;;;;;;6.67;70.93;99649.91;5085327;27;96693;-76
2023/11/25 00:12:20;;;;;;;3.55;1.13;;;;;;;6.43;71.59;99645.56;5099592;27;96891;-78
2023/11/25 00:14:46;;;;;;;4.47;0.98;;;;;;;6.61;71.42;99658.00;5082657;27;99113;-78
2023/11/25 00:17:13;;;;;;;4.47;1.10;;;;;;;6.74;71.13;99648.75;5096751;27;97770;-79
2023/11/25 00:19:39;;;;;;;3.42;1.20;;;;;;;6.63;71.05;99656.16;5094639;27;96699;-78
2023/11/25 00:22:06;;;;;;;4.75;1.30;;;;;;;6.57;71.41;99647.63;5101349;27;96632;-78
2023/11/25 00:24:32;;;;;;;5.43;1.20;;;;;;;6.36;71.92;99655.41;5096605;27;98741;-77
2023/11/25 00:27:00;;;;;;;4.18;1.30;;;;;;;6.51;71.46;99669.72;5094893;27;98719;-78
2023/11/25 00:29:28;;;;;;;3.50;1.35;;;;;;;6.68;71.37;99677.88;5095552;27;96746;-77
2023/11/25 00:31:55;;;;;;;8.45;1.58;;;;;;;6.93;70.16;99688.31;5096628;27;96847;-77
2023/11/25 00:34:23;;;;;;;7.15;1.42;;;;;;;6.92;69.63;99693.63;5084171;27;97997;-77
2023/11/25 00:36:49;;;;;;;5.80;1.13;;;;;;;7.09;68.10;99688.56;5110595;27;98753;-76
2023/11/25 00:39:15;;;;;;;4.40;1.10;;;;;;;6.68;70.06;99685.75;5088265;27;97269;-78
2023/11/25 00:41:42;;;;;;;6.70;1.13;;;;;;;6.76;68.68;99685.47;5084423;27;96806;-75
2023/11/25 00:44:10;;;;;;;6.72;1.60;;;;;;;6.85;68.52;99706.09;5088791;27;98855;-76
2023/11/25 00:46:36;;;;;;;5.60;0.55;;;;;;;6.46;69.68;99703.16;5093137;27;97652;-75
2023/11/25 00:49:04;;;;;;;6.35;0.75;;;;;;;6.58;69.06;99705.34;5081658;27;96810;-77
2023/11/25 00:51:30;;;;;;;4.15;1.00;;;;;;;6.70;68.22;99723.28;5090756;27;96715;-77
2023/11/25 00:53:57;;;;;;;5.38;1.85;;;;;;;6.59;68.06;99714.94;5086415;27;98636;-76
2023/11/25 00:56:24;;;;;;;3.83;0.90;;;;;;;6.61;68.75;99728.88;5092072;27;99254;-76
2023/11/25 00:58:50;;;;;;;1.58;0.70;;;;;;;6.64;68.00;99727.88;5086574;27;99044;-75
2023/11/25 01:01:20;;;;;;;3.03;0.70;;;;;;;6.68;68.27;99725.13;5088808;27;97295;-76
2023/11/25 01:03:46;;;;;;;3.00;0.90;;;;;;;6.70;67.93;99725.03;5090431;27;99280;-77
2023/11/25 01:06:13;;;;;;;4.70;0.93;;;;;;;6.45;68.77;99732.06;5090570;27;101186;-77
2023/11/25 01:08:39;;;;;;;4.75;0.80;;;;;;;6.54;69.14;99735.25;5090951;27;96713;-77
2023/11/25 01:11:06;;;;;;;2.95;0.68;;;;;;;6.59;68.44;99730.69;5090542;27;97863;-77
2023/11/25 01:13:32;;;;;;;3.42;0.93;;;;;;;6.61;67.87;99736.75;5085805;27;100344;-77
2023/11/25 01:16:00;;;;;;;1.90;0.68;;;;;;;6.47;68.80;99749.50;5089129;27;100988;-77
2023/11/25 01:18:28;;;;;;;4.68;0.75;;;;;;;6.68;68.49;99740.00;5078908;27;97643;-77
2023/11/25 01:20:55;;;;;;;12.32;0.95;;;;;;;6.62;68.00;99756.84;5089689;27;96973;-78
2023/11/25 01:23:22;;;;;;;3.50;0.90;;;;;;;6.59;68.06;99756.06;5089040;27;98880;-77
2023/11/25 01:25:49;;;;;;;3.47;0.85;;;;;;;6.61;68.43;99760.38;5081913;27;98842;-78
2023/11/25 01:28:15;;;;;;;3.08;1.17;;;;;;;6.73;67.26;99751.19;5088495;27;96775;-80
2023/11/25 01:30:42;;;;;;;3.28;0.90;;;;;;;6.44;67.92;99759.22;5093760;27;97208;-77
2023/11/25 01:33:09;;;;;;;3.15;0.75;;;;;;;6.61;67.49;99770.88;5086887;27;99937;-77
2023/11/25 01:35:38;;;;;;;4.93;0.70;;;;;;;6.39;67.15;99767.25;5089176;27;98692;-77
2023/11/25 01:38:05;;;;;;;5.65;0.90;;;;;;;6.66;67.69;99771.56;5083848;27;97102;-77
2023/11/25 01:40:32;;;;;;;6.30;0.80;;;;;;;6.93;66.90;99777.59;5092914;27;96792;-77
2023/11/25 01:42:58;;;;;;;6.35;0.90;;;;;;;6.69;67.01;99779.34;5076474;27;101587;-78
2023/11/25 01:45:25;;;;;;;3.78;1.10;;;;;;;6.80;66.11;99777.19;5095493;27;98763;-77
2023/11/25 01:47:52;;;;;;;2.55;0.60;;;;;;;6.52;67.06;99776.41;5092313;27;96549;-77
2023/11/25 01:50:22;;;;;;;5.03;0.60;;;;;;;6.62;67.47;99783.09;5089741;27;96787;-77
2023/11/25 01:52:53;;;;;;;5.10;0.80;;;;;;;6.90;65.65;99782.09;5085834;27;98929;-77
2023/11/25 01:55:21;;;;;;;4.72;0.75;;;;;;;7.00;65.43;99776.47;5077091;27;100538;-76
2023/11/25 01:57:48;;;;;;;5.95;0.82;;;;;;;6.69;65.94;99776.72;5092909;27;96659;-77
2023/11/25 02:00:15;;;;;;;3.13;0.80;;;;;;;6.88;65.05;99789.19;5084190;27;96900;-76
2023/11/25 02:02:43;;;;;;;5.10;0.70;;;;;;;6.68;65.97;99782.88;5086403;27;97580;-76
2023/11/25 02:05:10;;;;;;;4.03;1.35;;;;;;;6.68;65.52;99782.88;5079542;27;99312;-76
2023/11/25 02:07:37;;;;;;;5.55;0.98;;;;;;;6.49;66.12;99776.53;5081733;27;96773;-75
2023/11/25 02:10:05;;;;;;;2.13;0.75;;;;;;;6.61;66.06;99776.13;5091419;27;96986;-76
2023/11/25 02:12:32;;;;;;;4.70;0.82;;;;;;;6.78;65.83;99789.50;5085901;27;99302;-76
2023/11/25 02:14:59;;;;;;;2.15;0.52;;;;;;;6.85;65.48;99784.88;5088357;27;97501;-77
2023/11/25 02:17:25;;;;;;;6.57;0.65;;;;;;;7.03;64.70;99786.00;5076983;27;96730;-79
2023/11/25 02:19:53;;;;;;;1.75;0.50;;;;;;;6.89;64.30;99797.03;5082884;27;96793;-79
2023/11/25 02:22:20;;;;;;;2.17;0.40;;;;;;;7.00;65.07;99794.00;5090744;27;98917;-78
2023/11/25 02:24:47;;;;;;;7.85;1.00;;;;;;;6.98;64.05;99790.56;5090888;27;100750;-77
2023/11/25 02:27:14;;;;;;;3.88;0.52;;;;;;;6.79;64.64;99799.09;5087085;27;97080;-76
2023/11/25 02:29:40;;;;;;;2.17;0.43;;;;;;;6.82;64.76;99797.28;5088194;27;96858;-76
2023/11/25 02:32:07;;;;;;;4.65;0.70;;;;;;;7.08;64.22;99807.72;5080304;27;97731;-75
2023/11/25 02:34:34;;;;;;;4.05;0.65;;;;;;;7.05;64.31;99815.69;5077582;27;99495;-75
2023/11/25 02:37:00;;;;;;;5.25;0.90;;;;;;;7.13;64.49;99803.16;5093435;27;96637;-75
2023/11/25 02:39:28;;;;;;;2.80;0.50;;;;;;;6.94;64.71;99810.84;5095327;27;96917;-76
2023/11/25 02:41:55;;;;;;;3.95;0.70;;;;;;;7.00;64.43;99808.00;5077365;27;97805;-75
2023/11/25 02:44:22;;;;;;;6.07;0.60;;;;;;;6.54;66.05;99811.34;5086003;27;97608;-74
2023/11/25 02:46:49;;;;;;;6.53;1.67;;;;;;;6.88;65.39;99818.94;5091705;27;98104;-74
2023/11/25 02:49:16;;;;;;;10.85;0.82;;;;;;;7.12;64.51;99822.44;5090333;27;96831;-74
2023/11/25 02:51:48;;;;;;;6.88;0.75;;;;;;;6.65;65.48;99822.34;5090658;27;98877;-74
2023/11/25 02:54:14;;;;;;;2.70;0.80;;;;;;;6.48;67.34;99818.56;5092065;27;101907;-74
2023/11/25 02:56:40;;;;;;;2.70;0.65;;;;;;;6.68;66.29;99816.13;5089202;27;96787;-75
2023/11/25 02:59:09;;;;;;;3.25;0.68;;;;;;;6.62;66.37;99818.97;5087557;27;96923;-74
2023/11/25 03:01:39;;;;;;;4.63;0.63;;;;;;;6.55;67.19;99817.47;5087358;27;101092;-74
2023/11/25 03:04:07;;;;;;;6.13;0.50;;;;;;;6.27;68.60;99826.25;5089832;27;98910;-75
2023/11/25 03:06:34;;;;;;;4.03;0.73;;;;;;;6.28;68.22;99835.84;5093448;27;97595;-74
2023/11/25 03:09:01;;;;;;;4.38;0.98;;;;;;;6.61;67.72;99833.88;5089542;27;99027;-75
2023/11/25 03:11:28;;;;;;;9.93;1.98;;;;;;;6.68;67.52;99839.78;5081560;27;98907;-75
2023/11/25 03:13:54;;;;;;;7.35;0.73;;;;;;;6.76;67.52;99838.56;5096284;27;99370;-74
2023/11/25 03:16:24;;;;;;;4.45;0.98;;;;;;;6.80;67.39;99845.47;5095482;27;96879;-75
2023/11/25 03:18:51;;;;;;;3.72;0.57;;;;;;;6.69;68.01;99847.59;5082356;27;97456;-75
2023/11/25 03:21:19;;;;;;;5.35;0.80;;;;;;;6.72;68.40;99841.38;5093081;27;97405;-75
2023/11/25 03:23:46;;;;;;;5.43;1.00;;;;;;;6.63;68.46;99850.41;5088425;27;99323;-75
2023/11/25 03:26:13;;;;;;;6.00;0.88;;;;;;;6.55;69.01;99854.22;5086211;27;97104;-76
2023/11/25 03:28:40;;;;;;;6.65;0.73;;;;;;;6.79;68.10;99850.75;5087683;27;96980;-75
2023/11/25 03:31:07;;;;;;;8.05;0.70;;;;;;;7.00;67.10;99859.66;5085892;27;97555;-76
2023/11/25 03:33:35;;;;;;;7.35;1.00;;;;;;;6.83;67.46;99854.16;5082133;27;97717;-75
2023/11/25 03:36:01;;;;;;;5.65;0.80;;;;;;;6.62;68.38;99856.59;5080006;27;96779;-75
2023/11/25 03:38:28;;;;;;;3.85;0.65;;;;;;;6.37;69.80;99853.03;5084258;27;96812;-74
2023/11/25 03:40:55;;;;;;;5.50;1.02;;;;;;;6.44;70.19;99862.41;5085292;27;101600;-76
2023/11/25 03:43:21;;;;;;;6.82;1.10;;;;;;;6.50;69.63;99859.59;5091360;27;97651;-76
2023/11/25 03:45:48;;;;;;;6.05;0.80;;;;;;;6.09;71.12;99855.69;5091482;27;96763;-76
2023/11/25 03:48:14;;;;;;;6.47;0.93;;;;;;;6.31;70.70;99861.09;5088093;27;96716;-77
2023/11/25 03:50:42;;;;;;;4.82;0.90;;;;;;;6.20;71.13;99868.47;5093538;27;98078;-77
2023/11/25 03:53:10;;;;;;;4.72;1.00;;;;;;;6.30;70.97;99875.16;5089021;27;101630;-77
2023/11/25 03:55:36;;;;;;;6.43;1.20;;;;;;;6.46;70.51;99881.59;5088420;27;96776;-76
2023/11/25 03:58:04;;;;;;;9.48;0.82;;;;;;;6.34;71.17;99887.25;5092150;27;96850;-77
2023/11/25 04:00:32;;;;;;;4.13;0.90;;;;;;;6.31;71.06;99887.34;5078556;27;99390;-77
2023/11/25 04:02:58;;;;;;;7.45;1.00;;;;;;;6.52;70.60;99884.03;5085244;27;98844;-78
2023/11/25 04:05:24;;;;;;;6.10;1.05;;;;;;;6.46;70.64;99894.72;5094117;27;97000;-77
2023/11/25 04:07:52;;;;;;;5.07;1.08;;;;;;;6.71;69.80;99900.88;5095137;27;96853;-77
2023/11/25 04:10:19;;;;;;;5.15;1.08;;;;;;;6.48;71.41;99898.19;5094066;27;102048;-76
2023/11/25 04:12:47;;;;;;;6.90;1.08;;;;;;;6.65;71.10;99908.97;5091876;27;101481;-76
2023/11/25 04:15:16;;;;;;;5.72;0.82;;;;;;;6.73;70.58;99901.72;5092047;27;96948;-75
2023/11/25 04:17:43;;;;;;;5.93;0.77;;;;;;;6.83;70.45;99906.66;5088201;27;96630;-76
2023/11/25 04:20:13;;;;;;;5.43;1.05;;;;;;;6.85;70.17;99908.31;5082253;27;99187;-76
2023/11/25 04:22:42;;;;;;;2.65;0.90;;;;;;;6.86;70.12;99914.44;5089234;27;98872;-77
2023/11/25 04:25:11;;;;;;;6.57;1.42;;;;;;;6.79;71.05;99911.16;5085846;27;96667;-75
2023/11/25 04:27:39;;;;;;;5.75;1.10;;;;;;;6.58;71.47;99911.84;5089721;27;97100;-75
2023/11/25 04:30:08;;;;;;;8.02;1.20;;;;;;;6.67;71.41;99911.56;5088941;27;98775;-76
2023/11/25 04:32:34;;;;;;;8.35;1.30;;;;;;;6.50;72.33;99909.47;5090982;27;97353;-76
2023/11/25 04:35:01;;;;;;;4.53;1.10;;;;;;;6.72;71.72;99915.75;5086616;27;96752;-76
2023/11/25 04:37:29;;;;;;;4.45;1.35;;;;;;;6.66;71.18;99915.09;5091173;27;96817;-76
2023/11/25 04:39:56;;;;;;;11.68;2.33;;;;;;;6.60;71.51;99924.03;5087174;27;99055;-76
2023/11/25 04:42:23;;;;;;;8.13;1.42;;;;;;;6.85;71.05;99924.06;5085000;27;97476;-76
2023/11/25 04:44:50;;;;;;;13.07;2.00;;;;;;;7.04;70.21;99929.56;5090932;27;96836;-76
2023/11/25 04:47:16;;;;;;;4.97;1.15;;;;;;;7.13;69.51;99937.13;5091191;27;96763;-75
2023/11/25 04:49:43;;;;;;;12.30;2.05;;;;;;;7.06;69.65;99930.38;5092903;27;98946;-76
2023/11/25 04:52:09;;;;;;;13.05;2.38;;;;;;;6.90;70.58;99932.66;5086855;27;98798;-76
2023/11/25 04:54:37;;;;;;;9.98;1.52;;;;;;;6.83;71.26;99933.75;5085514;27;96955;-76
2023/11/25 04:57:06;;;;;;;7.93;1.63;;;;;;;6.42;72.05;99924.63;5077867;27;99075;-76
2023/11/25 04:59:34;;;;;;;8.70;1.73;;;;;;;6.51;72.04;99934.81;5093149;27;99592;-76
2023/11/25 05:02:01;;;;;;;15.18;2.10;;;;;;;6.52;72.24;99927.78;5092550;27;97560;-76
2023/11/25 05:04:27;;;;;;;6.50;1.65;;;;;;;6.47;72.16;99930.56;5090884;27;96963;-76
2023/11/25 05:06:54;;;;;;;11.55;1.63;;;;;;;6.38;72.60;99933.47;5089760;27;96887;-76
2023/11/25 05:09:20;;;;;;;7.15;1.65;;;;;;;6.33;72.82;99938.00;5089554;27;98899;-76
2023/11/25 05:11:47;;;;;;;13.75;1.73;;;;;;;6.44;72.63;99946.41;5079242;27;97994;-76
2023/11/25 05:14:13;;;;;;;12.20;1.85;;;;;;;6.35;72.15;99963.31;5084383;27;98622;-76
2023/11/25 05:16:41;;;;;;;6.43;1.70;;;;;;;6.27;72.28;99959.19;5085732;27;97059;-76
2023/11/25 05:19:08;;;;;;;11.32;1.67;;;;;;;6.36;72.62;99958.91;5085777;27;99509;-76
2023/11/25 05:21:34;;;;;;;11.38;1.70;;;;;;;6.32;71.99;99962.53;5076378;27;98889;-75
2023/11/25 05:24:01;;;;;;;9.45;1.20;;;;;;;5.87;74.19;99960.38;5082490;27;96750;-76
2023/11/25 05:26:27;;;;;;;6.57;1.20;;;;;;;5.87;74.61;99965.59;5084445;27;97278;-77
2023/11/25 05:28:53;;;;;;;10.23;1.65;;;;;;;6.10;73.74;99961.47;5079076;27;101735;-77
2023/11/25 05:31:20;;;;;;;7.53;1.65;;;;;;;6.10;73.29;99974.59;5083186;27;99175;-77
2023/11/25 05:33:48;;;;;;;10.10;1.30;;;;;;;5.87;74.71;99965.59;5085044;27;96975;-78
2023/11/25 05:36:14;;;;;;;9.10;2.08;;;;;;;6.05;72.98;99989.56;5092848;27;96780;-77
2023/11/25 05:38:41;;;;;;;11.18;1.50;;;;;;;6.19;72.79;99983.03;5090711;27;100618;-77
2023/11/25 05:41:08;;;;;;;7.75;0.90;;;;;;;6.34;71.69;99989.59;5089432;27;98870;-78
2023/11/25 05:43:35;;;;;;;17.38;1.40;;;;;;;6.13;72.37;99987.59;5082452;27;96805;-79
2023/11/25 05:46:01;;;;;;;7.30;1.20;;;;;;;6.17;71.46;99984.00;5090167;27;96929;-79
2023/11/25 05:48:28;;;;;;;13.55;1.50;;;;;;;6.15;71.89;99980.56;5084914;27;97525;-79
2023/11/25 05:50:55;;;;;;;12.05;1.25;;;;;;;5.61;72.71;99999.53;5094128;27;97659;-78
2023/11/25 05:53:22;;;;;;;4.45;1.15;;;;;;;5.83;73.19;99997.19;5084686;27;96874;-76
2023/11/25 05:55:48;;;;;;;7.00;1.10;;;;;;;5.84;72.94;99999.72;5083068;27;98850;-75
2023/11/25 05:58:15;;;;;;;7.78;1.52;;;;;;;5.94;72.26;100003.00;5073413;27;99348;-76
2023/11/25 06:00:41;;;;;;;14.30;1.95;;;;;;;5.68;72.89;100008.94;5088874;27;99141;-76
2023/11/25 06:03:08;;;;;;;8.13;1.23;;;;;;;5.72;72.40;100012.31;5086972;27;96849;-76
2023/11/25 06:05:34;;;;;;;11.20;2.22;;;;;;;5.51;74.01;100003.31;5081490;27;97500;-76
2023/11/25 06:08:02;;;;;;;7.53;1.23;;;;;;;5.56;73.45;100004.03;5076522;27;99113;-77
2023/11/25 06:10:29;;;;;;;9.10;1.38;;;;;;;5.83;72.43;99999.81;5073489;27;100071;-76
2023/11/25 06:12:55;;;;;;;5.53;1.15;;;;;;;5.98;71.48;100010.72;5092973;27;96691;-76
2023/11/25 06:15:23;;;;;;;9.70;1.38;;;;;;;5.50;72.69;100005.06;5086566;27;96852;-77
2023/11/25 06:17:50;;;;;;;7.22;1.40;;;;;;;5.73;72.18;100003.56;5085849;27;98962;-77
2023/11/25 06:20:16;;;;;;;11.88;2.38;;;;;;;5.86;71.73;100008.44;5091895;27;99136;-77
2023/11/25 06:22:43;;;;;;;9.07;1.58;;;;;;;6.00;70.49;100008.06;5091936;27;96797;-77
2023/11/25 06:25:11;;;;;;;8.05;1.15;;;;;;;5.91;71.08;100010.94;5091896;27;96909;-77
2023/11/25 06:27:37;;;;;;;13.55;1.42;;;;;;;5.90;70.90;100015.34;5081052;27;101786;-77
2023/11/25 06:30:04;;;;;;;6.05;1.33;;;;;;;5.76;70.68;100009.59;5085455;27;99257;-77
2023/11/25 06:32:32;;;;;;;10.27;1.30;;;;;;;5.70;71.48;100015.00;5089921;27;97694;-76
2023/11/25 06:34:59;;;;;;;9.75;1.55;;;;;;;5.70;71.56;100009.78;5082695;27;96882;-76
2023/11/25 06:37:25;;;;;;;8.60;1.42;;;;;;;5.75;71.19;100013.13;5088329;27;101855;-77
2023/11/25 06:39:52;;;;;;;8.10;0.88;;;;;;;5.83;70.87;100012.91;5098903;27;99177;-78
2023/11/25 06:42:20;;;;;;;12.57;1.30;;;;;;;5.74;71.55;100011.41;5096757;27;96777;-78
2023/11/25 06:44:47;;;;;;;9.35;1.17;;;;;;;5.75;71.72;100020.97;5096902;27;96728;-78
2023/11/25 06:47:14;;;;;;;5.53;1.20;;;;;;;5.67;71.16;100012.47;5099722;27;100617;-79
2023/11/25 06:49:44;;;;;;;3.65;1.30;;;;;;;5.44;72.43;100022.72;5083504;27;98734;-78
2023/11/25 06:52:10;;;;;;;6.22;1.17;;;;;;;5.38;73.01;100015.00;5090724;27;96972;-80
2023/11/25 06:54:36;;;;;;;4.82;0.90;;;;;;;5.32;73.41;100015.13;5094285;27;96861;-78
2023/11/25 06:57:03;;;;;;;9.30;1.40;;;;;;;5.62;72.36;100024.84;5098913;27;98922;-78
2023/11/25 06:59:31;;;;;;;7.10;1.55;;;;;;;5.83;71.43;100024.25;5090647;27;98845;-77
2023/11/25 07:01:57;;;;;;;7.20;1.92;;;;;;;5.78;71.72;100020.88;5092915;27;96817;-78
2023/11/25 07:04:24;;;;;;;9.25;1.45;;;;;;;5.72;70.69;100018.44;5097738;27;97097;-78
2023/11/25 07:06:50;;;;;;;10.57;1.40;;;;;;;5.85;70.98;100027.69;5096995;27;98871;-78
2023/11/25 07:09:18;;;;;;;6.82;1.20;;;;;;;5.92;70.27;100034.50;5096107;27;98848;-78
2023/11/25 07:11:45;;;;;;;5.28;1.38;;;;;;;5.64;71.30;100038.78;5090215;27;97235;-78
2023/11/25 07:14:11;;;;;;;5.45;1.40;;;;;;;5.81;70.82;100040.91;5094682;27;96733;-79
2023/11/25 07:16:40;;;;;;;12.48;1.75;;;;;;;5.78;70.99;100044.47;5093712;27;97870;-79
2023/11/25 07:19:08;;;;;;;5.25;1.20;;;;;;;5.78;70.94;100044.47;5089345;27;99408;-77
2023/11/25 07:21:36;;;;;;;6.72;1.23;;;;;;;5.64;71.21;100035.28;5090176;27;97734;-76
2023/11/25 07:24:03;;;;;;;11.82;1.20;;;;;;;5.71;71.51;100042.91;5093374;27;96765;-76
2023/11/25 07:26:30;;;;;;;9.20;1.30;;;;;;;6.03;70.37;100034.22;5089027;27;99463;-76
2023/11/25 07:28:56;;;;;;;9.68;1.30;;;;;;;5.98;69.46;100042.19;5086302;27;100665;-76
2023/11/25 07:31:22;;;;;;;8.25;1.15;;;;;;;6.16;68.66;100040.84;5084631;27;96780;-78
2023/11/25 07:33:50;;;;;;;4.65;1.02;;;;;;;5.97;69.52;100039.66;5095640;27;96869;-78
2023/11/25 07:36:17;;;;;;;5.47;1.58;;;;;;;6.11;69.50;100037.47;5088978;27;98128;-76
2023/11/25 07:38:43;;;;;;;6.35;1.30;;;;;;;6.24;68.29;100030.09;5089344;27;98944;-76
2023/11/25 07:41:16;;;;;;;7.25;1.20;;;;;;;6.07;68.63;100029.75;5086813;27;96699;-77
2023/11/25 07:43:42;;;;;;;4.90;1.20;;;;;;;6.09;69.14;100027.94;5079323;27;100607;-77
2023/11/25 07:46:11;;;;;;;6.32;1.55;;;;;;;6.15;68.55;100033.00;5090917;27;98972;-77
2023/11/25 07:48:38;;;;;;;5.25;0.95;;;;;;;6.13;67.93;100037.44;5085999;27;99163;-78
2023/11/25 07:51:06;;;;;;;11.80;1.60;;;;;;;6.13;68.01;100042.69;5083703;27;98724;-78
2023/11/25 07:53:32;;;;;;;7.55;1.52;;;;;;;5.99;67.85;100043.94;5089978;27;97606;-78
2023/11/25 07:55:59;;;;;;;8.13;1.30;;;;;;;6.17;68.04;100031.22;5083923;27;101785;-78
2023/11/25 07:58:25;;;;;;;7.13;2.13;;;;;;;6.00;67.89;100031.69;5088336;27;99094;-78
2023/11/25 08:00:52;;;;;;;6.93;1.52;;;;;;;6.18;67.90;100038.16;5081437;27;96838;-77
2023/11/25 08:03:18;;;;;;;4.40;1.40;;;;;;;6.09;67.77;100034.06;5084682;27;96842;-75
2023/11/25 08:05:45;;;;;;;10.75;1.52;;;;;;;6.37;67.38;100042.81;5087949;27;99228;-76
2023/11/25 08:08:13;;;;;;;8.15;1.08;;;;;;;6.02;67.27;100042.13;5085613;27;98990;-75
2023/11/25 08:10:39;;;;;;;8.50;1.27;;;;;;;6.13;67.90;100045.31;5080100;27;96905;-76
2023/11/25 08:13:06;;;;;;;11.27;2.03;;;;;;;6.10;67.98;100041.03;5091689;27;97003;-75
2023/11/25 08:15:32;;;;;;;12.73;1.40;;;;;;;6.32;66.47;100041.25;5086481;27;99881;-77
2023/11/25 08:17:59;;;;;;;3.97;0.95;;;;;;;6.37;67.00;100044.59;5082199;27;97588;-78
2023/11/25 08:20:25;;;;;;;8.35;1.50;;;;;;;6.62;66.05;100042.97;5094857;27;96689;-78
2023/11/25 08:22:52;;;;;;;10.43;1.80;;;;;;;7.10;63.91;100034.44;5086694;27;97084;-76
2023/11/25 08:25:20;;;;;;;10.68;1.33;;;;;;;7.06;63.24;100032.81;5090208;27;99009;-77
2023/11/25 08:27:47;;;;;;;7.63;2.17;;;;;;;7.21;62.92;100037.59;5081653;27;99133;-76
2023/11/25 08:30:14;;;;;;;10.40;1.50;;;;;;;7.30;62.45;100037.25;5089880;27;98338;-74
2023/11/25 08:32:42;;;;;;;9.45;1.30;;;;;;;7.43;61.26;100033.31;5072525;27;96931;-74
2023/11/25 08:35:11;;;;;;;10.75;1.40;;;;;;;7.52;60.28;100025.13;5088954;27;99126;-74
2023/11/25 08:37:39;;;;;;;6.38;2.80;;;;;;;7.57;60.29;100028.44;5089159;27;98849;-74
2023/11/25 08:40:07;;;;;;;5.55;1.48;;;;;;;7.27;60.63;100039.16;5088956;27;96836;-74
2023/11/25 08:42:35;;;;;;;12.63;2.42;;;;;;;6.92;61.85;100042.91;5085934;27;98753;-73
2023/11/25 08:45:02;;;;;;;7.30;2.03;;;;;;;6.91;61.37;100038.56;5087801;27;99385;-74
2023/11/25 08:47:29;;;;;;;8.95;1.30;;;;;;;6.77;62.48;100042.47;5080176;27;100092;-73
2023/11/25 08:49:56;;;;;;;6.47;1.27;;;;;;;6.89;61.71;100038.63;5088237;27;97254;-74
2023/11/25 08:52:23;;;;;;;6.97;1.33;;;;;;;7.16;61.75;100047.38;5086426;27;97894;-74
2023/11/25 08:54:52;;;;;;;7.88;0.95;;;;;;;7.46;60.18;100046.38;5080700;27;99399;-74
2023/11/25 08:57:20;;;;;;;13.65;1.73;;;;;;;7.71;58.67;100049.00;5083515;27;100642;-73
2023/11/25 08:59:48;;;;;;;6.25;1.42;;;;;;;7.85;59.52;100057.28;5088598;27;96880;-75
2023/11/25 09:02:21;;;;;;;12.25;1.88;;;;;;;7.92;58.26;100058.78;5081944;27;96815;-74
2023/11/25 09:04:48;;;;;;;8.45;1.50;;;;;;;8.07;57.95;100057.38;5084409;27;98002;-74
2023/11/25 09:07:15;;;;;;;5.63;0.98;;;;;;;8.16;57.56;100054.41;5085606;27;99329;-75
2023/11/25 09:09:45;;;;;;;6.78;1.23;;;;;;;7.93;57.99;100057.03;5084333;27;96894;-75
2023/11/25 09:12:12;;;;;;;7.10;1.25;;;;;;;8.48;56.46;100062.91;5088100;27;97787;-74
2023/11/25 09:14:39;;;;;;;4.00;1.10;;;;;;;8.22;57.14;100050.69;5081106;27;99273;-75
2023/11/25 09:17:06;;;;;;;4.82;0.80;;;;;;;7.95;58.12;100047.28;5090313;27;101179;-74
2023/11/25 09:19:33;;;;;;;8.10;1.38;;;;;;;7.46;59.16;100046.38;5087021;27;96920;-74
2023/11/25 09:22:00;;;;;;;4.75;1.10;;;;;;;7.38;59.41;100040.50;5091020;27;97088;-74
2023/11/25 09:24:26;;;;;;;5.10;0.93;;;;;;;7.75;58.81;100036.59;5085112;27;98707;-73
2023/11/25 09:26:54;;;;;;;8.98;1.40;;;;;;;7.77;58.83;100042.66;5088555;27;99000;-73
2023/11/25 09:29:20;;;;;;;17.15;1.75;;;;;;;8.01;58.69;100047.06;5086511;27;96706;-74
2023/11/25 09:31:47;;;;;;;8.23;2.13;;;;;;;8.06;58.25;100054.81;5090902;27;97134;-75
2023/11/25 09:34:15;;;;;;;8.85;2.67;;;;;;;8.26;57.47;100049.66;5085229;27;97869;-73
2023/11/25 09:36:41;;;;;;;8.95;1.92;;;;;;;8.48;57.07;100055.00;5084531;27;98881;-77
2023/11/25 09:39:09;;;;;;;8.77;1.17;;;;;;;8.32;57.75;100049.47;5080006;27;96880;-74
2023/11/25 09:41:37;;;;;;;15.07;1.77;;;;;;;8.28;57.34;100053.94;5072621;27;100517;-74
2023/11/25 09:44:07;;;;;;;14.02;1.98;;;;;;;8.32;58.01;100046.84;5073226;27;100069;-73
2023/11/25 09:46:33;;;;;;;11.10;2.38;;;;;;;8.28;58.70;100038.16;5072664;27;99108;-72
2023/11/25 09:49:00;;;;;;;4.88;1.00;;;;;;;7.80;59.48;100032.91;5074320;27;97466;-75
2023/11/25 09:51:32;;;;;;;14.55;1.77;;;;;;;7.92;60.21;100021.97;5079431;27;97101;-74
2023/11/25 09:54:04;;;;;;;9.43;1.10;;;;;;;7.44;61.02;100016.63;5081733;27;98550;-74
2023/11/25 09:56:31;;;;;;;8.13;1.27;;;;;;;7.51;61.75;100014.66;5080922;27;101170;-74
2023/11/25 09:58:58;;;;;;;10.27;1.50;;;;;;;7.56;62.16;100016.22;5079606;27;98735;-74
2023/11/25 10:01:24;;;;;;;15.02;1.90;;;;;;;7.90;61.49;100010.63;5080822;27;98384;-73
2023/11/25 10:03:55;;;;;;;7.43;1.83;;;;;;;8.33;60.42;100004.69;5078686;27;98927;-74
2023/11/25 10:06:21;;;;;;;6.82;1.50;;;;;;;8.24;60.79;100014.66;5077431;27;99238;-74
2023/11/25 10:08:50;;;;;;;7.07;1.65;;;;;;;8.53;60.11;100014.44;5079270;27;97455;-74
2023/11/25 10:11:18;;;;;;;8.10;1.33;;;;;;;8.75;58.58;100012.66;5076731;27;96975;-74
2023/11/25 10:13:46;;;;;;;9.70;1.50;;;;;;;8.80;59.83;100004.56;5081871;27;98391;-74
2023/11/25 10:16:13;;;;;;;6.47;1.10;;;;;;;8.76;59.15;100001.22;5082439;27;99676;-76
2023/11/25 10:18:41;;;;;;;7.00;1.83;;;;;;;9.10;58.37;99995.44;5084144;27;96957;-76
2023/11/25 10:21:10;;;;;;;9.52;1.52;;;;;;;9.02;59.09;100004.56;5082835;27;98839;-75
2023/11/25 10:23:36;;;;;;;11.57;1.63;;;;;;;8.68;59.40;100002.44;5086656;27;98893;-75
2023/11/25 10:26:05;;;;;;;9.18;2.28;;;;;;;8.92;59.52;100001.47;5076137;27;100412;-74
2023/11/25 10:28:35;;;;;;;7.40;1.30;;;;;;;8.98;59.05;99988.06;5081743;27;98289;-74
2023/11/25 10:31:04;;;;;;;12.32;1.90;;;;;;;8.86;58.96;99996.41;5082648;27;96778;-75
2023/11/25 10:33:31;;;;;;;8.90;1.85;;;;;;;8.93;58.85;99991.75;5084400;27;99305;-75
2023/11/25 10:35:58;;;;;;;6.38;1.33;;;;;;;8.75;59.72;99991.59;5078734;27;100523;-75
2023/11/25 10:38:27;;;;;;;8.85;1.30;;;;;;;8.72;60.02;99986.47;5080502;27;98581;-74
2023/11/25 10:40:59;;;;;;;7.95;1.48;;;;;;;8.68;60.37;99994.53;5086976;27;97360;-75
2023/11/25 10:43:27;;;;;;;10.63;1.73;;;;;;;8.68;61.16;99991.91;5079429;27;98860;-75
2023/11/25 10:46:02;;;;;;;10.23;2.03;;;;;;;8.81;60.57;99982.59;5081593;27;99227;-75
2023/11/25 10:48:29;;;;;;;9.75;1.65;;;;;;;8.80;60.65;99983.50;5079770;27;97602;-75
2023/11/25 10:50:57;;;;;;;8.77;2.13;;;;;;;9.04;60.71;99982.53;5088649;27;96797;-75
2023/11/25 10:53:28;;;;;;;10.77;1.73;;;;;;;9.04;60.27;99986.94;5079851;27;98811;-75
2023/11/25 10:55:56;;;;;;;16.65;1.95;;;;;;;9.10;60.13;99981.41;5086563;27;100185;-74
2023/11/25 10:58:22;;;;;;;10.30;1.90;;;;;;;9.00;59.84;99990.59;5081160;27;96682;-75
2023/11/25 11:00:52;;;;;;;9.15;1.92;;;;;;;8.88;60.92;99989.31;5084070;27;97147;-74
2023/11/25 11:03:21;;;;;;;6.63;2.08;;;;;;;8.98;60.10;99974.00;5079290;27;98869;-75
2023/11/25 11:05:55;;;;;;;14.70;2.30;;;;;;;9.08;nan;99973.56;5080506;27;98821;-77
2023/11/25 11:08:25;;;;;;;7.13;2.05;;;;;;;8.87;61.30;99981.47;5087264;27;96769;-74
2023/11/25 11:10:55;;;;;;;5.70;1.40;;;;;;;8.76;61.70;99979.28;5082764;27;98389;-75
2023/11/25 11:13:26;;;;;;;3.80;1.45;;;;;;;8.76;62.34;99972.25;5087792;27;98787;-75
2023/11/25 11:15:58;;;;;;;10.00;1.90;;;;;;;8.73;62.40;99974.97;5090614;27;97527;-75
2023/11/25 11:18:30;;;;;;;17.33;1.90;;;;;;;8.61;62.85;99980.75;5080979;27;97082;-74
2023/11/25 11:20:59;;;;;;;9.10;2.00;;;;;;;8.62;63.41;99982.47;5078930;27;97393;-75
2023/11/25 11:23:27;;;;;;;9.88;1.88;;;;;;;8.88;62.36;99975.28;5083950;27;99892;-74
2023/11/25 11:26:00;;;;;;;9.98;2.05;;;;;;;8.78;62.92;99982.72;5081718;27;99921;-75
2023/11/25 11:28:37;;;;;;;5.43;1.65;;;;;;;8.61;63.75;99983.38;5082400;27;96746;-74
2023/11/25 11:31:22;;;;;;;;;;;;;;;8.80;63.79;99978.22;5080822;27;97327;-74
2023/11/25 11:33:49;;;;;;;6.45;1.50;;;;;;;8.56;64.57;99976.59;5085245;27;98924;-74
2023/11/25 11:36:20;;;;;;;5.22;1.73;;;;;;;8.61;64.83;99983.38;5088397;27;99117;-74